createdAt,value
2022-08-07T00:02:35.362Z,1.80
2022-08-07T00:04:15.457Z,1.50
2022-08-07T00:06:51.257Z,1.40
2022-08-07T00:09:29.250Z,1.70
2022-08-07T00:12:03.772Z,1.50
2022-08-07T00:14:31.800Z,1.60
2022-08-07T00:17:01.766Z,1.40
2022-08-07T00:19:34.479Z,1.40
2022-08-07T00:22:24.481Z,1.60
2022-08-07T00:25:07.500Z,1.50
2022-08-07T00:27:53.153Z,1.60
2022-08-07T00:30:27.371Z,1.90
2022-08-07T00:33:00.588Z,1.50
2022-08-07T00:35:29.923Z,1.40
2022-08-07T00:37:58.635Z,1.50
2022-08-07T00:40:36.188Z,1.70
2022-08-07T00:43:58.732Z,1.50
2022-08-07T00:45:58.879Z,1.40
2022-08-07T00:48:31.734Z,1.60
2022-08-07T00:51:00.378Z,1.80
2022-08-07T00:53:39.213Z,1.60
2022-08-07T00:56:15.111Z,1.30
2022-08-07T00:58:47.081Z,1.40
2022-08-07T01:01:18.127Z,1.60
2022-08-07T01:03:55.708Z,1.70
2022-08-07T01:06:25.268Z,1.60
2022-08-07T01:08:53.957Z,1.70
2022-08-07T01:12:23.369Z,1.50
2022-08-07T01:14:10.008Z,1.40
2022-08-07T01:16:37.418Z,2.00
2022-08-07T01:19:18.508Z,2.00
2022-08-07T01:21:49.087Z,1.60
2022-08-07T01:24:21.193Z,1.60
2022-08-07T01:26:53.940Z,1.80
2022-08-07T01:29:31.342Z,1.60
2022-08-07T01:32:01.386Z,1.60
2022-08-07T01:34:33.406Z,1.70
2022-08-07T01:37:01.262Z,1.60
2022-08-07T01:39:41.386Z,1.60
2022-08-07T01:42:39.873Z,1.40
2022-08-07T01:45:04.630Z,1.60
2022-08-07T01:48:20.331Z,1.70
2022-08-07T01:50:22.696Z,1.60
2022-08-07T01:52:58.728Z,1.60
2022-08-07T01:55:29.432Z,1.50
2022-08-07T01:58:27.255Z,1.40
2022-08-07T02:01:09.744Z,1.70
2022-08-07T02:03:50.961Z,1.60
2022-08-07T02:06:32.194Z,1.60
2022-08-07T02:09:03.564Z,1.60
2022-08-07T02:12:02.848Z,1.50
2022-08-07T02:14:36.216Z,1.80
2022-08-07T02:17:12.921Z,1.60
2022-08-07T02:20:07.583Z,1.60
2022-08-07T02:22:41.005Z,1.60
2022-08-07T02:25:14.099Z,1.50
2022-08-07T02:27:52.190Z,1.70
2022-08-07T02:30:20.477Z,1.70
2022-08-07T02:33:00.476Z,1.50
2022-08-07T02:36:30.671Z,1.30
2022-08-07T02:38:31.582Z,1.50
2022-08-07T02:41:00.635Z,1.80
2022-08-07T02:43:27.815Z,1.60
2022-08-07T02:45:58.290Z,1.50
2022-08-07T02:48:27.185Z,1.90
2022-08-07T02:50:56.761Z,1.40
2022-08-07T02:53:34.056Z,1.60
2022-08-07T02:56:20.931Z,1.50
2022-08-07T02:58:51.152Z,1.50
2022-08-07T03:01:36.622Z,1.50
2022-08-07T03:04:13.028Z,1.60
2022-08-07T03:06:44.727Z,1.60
2022-08-07T03:09:13.374Z,1.40
2022-08-07T03:11:51.677Z,1.40
2022-08-07T03:14:25.620Z,1.40
2022-08-07T03:16:52.791Z,1.30
2022-08-07T03:19:20.328Z,1.50
2022-08-07T03:21:50.899Z,1.90
2022-08-07T03:24:26.681Z,1.30
2022-08-07T03:27:01.746Z,1.50
2022-08-07T03:29:39.911Z,1.70
2022-08-07T03:32:16.050Z,1.70
2022-08-07T03:34:47.528Z,1.60
2022-08-07T03:37:37.481Z,1.50
2022-08-07T03:40:15.515Z,1.60
2022-08-07T03:42:44.259Z,1.50
2022-08-07T03:45:11.571Z,1.80
2022-08-07T03:47:47.842Z,1.70
2022-08-07T03:50:23.177Z,1.40
2022-08-07T03:52:52.270Z,1.50
2022-08-07T03:55:19.534Z,1.50
2022-08-07T03:58:33.954Z,1.50
2022-08-07T04:00:36.912Z,1.60
2022-08-07T04:03:05.241Z,1.70
2022-08-07T04:05:40.967Z,1.50
2022-08-07T04:08:11.779Z,1.60
2022-08-07T04:10:42.431Z,1.60
2022-08-07T04:13:16.104Z,1.60
2022-08-07T04:15:48.945Z,1.50
2022-08-07T04:18:56.559Z,1.60
2022-08-07T04:21:04.227Z,1.30
2022-08-07T04:23:43.539Z,1.80
2022-08-07T04:26:22.162Z,1.60
2022-08-07T04:28:49.225Z,1.90
2022-08-07T04:31:19.651Z,2.00
2022-08-07T04:33:47.315Z,1.70
2022-08-07T04:36:26.108Z,1.70
2022-08-07T04:41:19.943Z,1.80
2022-08-07T04:44:12.241Z,1.60
2022-08-07T04:47:08.182Z,1.60
2022-08-07T04:49:57.463Z,1.90
2022-08-07T04:52:51.069Z,1.60
2022-08-07T04:58:10.441Z,1.30
2022-08-07T04:59:16.911Z,1.80
2022-08-07T05:02:22.258Z,1.60
2022-08-07T05:05:53.041Z,1.50
2022-08-07T05:08:19.635Z,1.60
2022-08-07T05:11:58.807Z,1.50
2022-08-07T05:14:52.324Z,1.60
2022-08-07T05:17:50.132Z,1.70
2022-08-07T05:20:13.536Z,1.50
2022-08-07T05:22:45.034Z,1.50
2022-08-07T05:25:26.114Z,1.70
2022-08-07T05:28:20.397Z,1.70
2022-08-07T05:30:52.122Z,1.50
2022-08-07T05:33:21.298Z,1.70
2022-08-07T05:35:53.118Z,1.60
2022-08-07T05:39:00.520Z,1.40
2022-08-07T05:41:14.082Z,1.60
2022-08-07T05:44:08.521Z,1.60
2022-08-07T05:46:37.867Z,1.50
2022-08-07T05:49:12.040Z,1.50
2022-08-07T05:51:43.083Z,1.70
2022-08-07T05:54:44.400Z,1.40
2022-08-07T05:57:03.687Z,1.40
2022-08-07T05:59:47.290Z,2.10
2022-08-07T06:02:29.153Z,1.60
2022-08-07T06:05:03.541Z,1.60
2022-08-07T06:08:29.720Z,1.70
2022-08-07T06:10:21.143Z,1.70
2022-08-07T06:12:49.523Z,1.60
2022-08-07T06:15:19.885Z,1.50
2022-08-07T06:17:53.926Z,1.50
2022-08-07T06:20:25.245Z,1.80
2022-08-07T06:23:02.153Z,2.00
2022-08-07T06:25:54.848Z,2.10
2022-08-07T06:28:27.198Z,1.60
2022-08-07T06:30:56.149Z,1.60
2022-08-07T06:33:23.913Z,1.70
2022-08-07T06:36:13.351Z,1.40
2022-08-07T06:38:37.617Z,1.50
2022-08-07T06:41:13.234Z,1.70
2022-08-07T06:43:46.104Z,1.70
2022-08-07T06:46:15.041Z,1.60
2022-08-07T06:48:47.367Z,1.60
2022-08-07T06:51:31.123Z,1.70
2022-08-07T06:55:29.815Z,1.60
2022-08-07T06:56:54.507Z,1.50
2022-08-07T07:00:13.503Z,1.30
2022-08-07T07:02:48.758Z,1.40
2022-08-07T07:05:09.330Z,1.30
2022-08-07T07:07:58.518Z,1.40
2022-08-07T07:10:34.637Z,1.40
2022-08-07T07:13:12.678Z,1.30
2022-08-07T07:15:51.902Z,1.20
2022-08-07T07:18:47.743Z,1.80
2022-08-07T07:21:26.880Z,1.30
2022-08-07T07:24:06.088Z,1.20
2022-08-07T07:26:51.972Z,1.00
2022-08-07T07:29:56.635Z,1.10
2022-08-07T07:32:14.597Z,1.40
2022-08-07T07:34:55.814Z,1.40
2022-08-07T07:37:44.155Z,1.30
2022-08-07T07:40:18.339Z,1.30
2022-08-07T07:42:53.965Z,1.30
2022-08-07T07:46:37.035Z,1.30
2022-08-07T07:48:24.108Z,1.20
2022-08-07T07:51:08.064Z,1.00
2022-08-07T07:53:51.382Z,1.00
2022-08-07T07:56:29.989Z,1.10
2022-08-07T07:59:06.078Z,1.00
2022-08-07T08:02:02.213Z,0.90
2022-08-07T08:04:25.624Z,0.90
2022-08-07T08:06:53.759Z,1.20
2022-08-07T08:09:24.804Z,1.20
2022-08-07T08:12:02.035Z,1.10
2022-08-07T08:14:36.621Z,1.10
2022-08-07T08:17:56.472Z,0.90
2022-08-07T08:20:18.657Z,1.10
2022-08-07T08:23:11.031Z,1.10
2022-08-07T08:25:58.025Z,1.00
2022-08-07T08:28:37.296Z,1.10
2022-08-07T08:31:16.405Z,1.20
2022-08-07T08:33:55.677Z,1.00
2022-08-07T08:36:30.142Z,0.80
2022-08-07T08:39:02.015Z,0.70
2022-08-07T08:41:57.329Z,0.90
2022-08-07T08:44:48.059Z,1.00
2022-08-07T08:47:26.443Z,0.90
2022-08-07T08:50:05.360Z,1.00
2022-08-07T08:52:53.643Z,0.90
2022-08-07T08:55:54.934Z,0.90
2022-08-07T08:58:54.752Z,0.90
2022-08-07T09:01:43.750Z,0.70
2022-08-07T09:04:26.101Z,1.10
2022-08-07T09:07:06.267Z,1.00
2022-08-07T09:09:44.093Z,0.80
2022-08-07T09:12:35.168Z,0.90
2022-08-07T09:16:24.256Z,0.90
2022-08-07T09:18:24.916Z,0.90
2022-08-07T09:21:33.766Z,0.80
2022-08-07T09:24:58.511Z,1.10
2022-08-07T09:28:03.115Z,0.90
2022-08-07T09:31:17.847Z,0.80
2022-08-07T09:34:07.965Z,0.90
2022-08-07T09:39:57.878Z,1.00
2022-08-07T09:42:43.029Z,0.80
2022-08-07T09:47:23.433Z,0.90
2022-08-07T09:49:59.796Z,1.00
2022-08-07T09:52:34.506Z,1.10
2022-08-07T09:55:17.336Z,1.20
2022-08-07T09:58:51.236Z,1.10
2022-08-07T10:02:24.231Z,1.40
2022-08-07T10:05:59.860Z,1.40
2022-08-07T10:08:39.670Z,1.20
2022-08-07T10:12:01.394Z,1.10
2022-08-07T10:15:01.217Z,1.20
2022-08-07T10:18:00.770Z,1.10
2022-08-07T10:21:19.588Z,1.20
2022-08-07T10:24:21.576Z,1.00
2022-08-07T10:27:46.455Z,0.90
2022-08-07T10:30:48.356Z,1.20
2022-08-07T10:34:05.509Z,0.90
2022-08-07T10:37:05.514Z,1.00
2022-08-07T10:40:16.527Z,1.00
2022-08-07T10:43:35.664Z,1.10
2022-08-07T10:46:15.265Z,1.30
2022-08-07T10:48:58.477Z,1.10
2022-08-07T10:52:02.094Z,1.30
2022-08-07T10:54:49.054Z,1.00
2022-08-07T10:57:51.533Z,1.20
2022-08-07T11:00:36.554Z,1.20
2022-08-07T11:03:16.798Z,1.10
2022-08-07T11:06:21.986Z,1.10
2022-08-07T11:09:01.087Z,1.00
2022-08-07T11:11:51.785Z,1.10
2022-08-07T11:14:57.578Z,1.20
2022-08-07T11:17:49.682Z,1.00
2022-08-07T11:23:30.401Z,1.30
2022-08-07T11:26:08.169Z,1.30
2022-08-07T11:29:42.943Z,1.20
2022-08-07T11:32:25.228Z,1.30
2022-08-07T11:35:09.369Z,1.30
2022-08-07T11:37:57.983Z,1.20
2022-08-07T11:40:56.094Z,1.20
2022-08-07T11:43:54.655Z,1.30
2022-08-07T11:46:39.401Z,1.30
2022-08-07T11:50:18.533Z,1.20
2022-08-07T11:52:51.608Z,1.10
2022-08-07T11:56:09.406Z,1.40
2022-08-07T11:58:59.602Z,1.20
2022-08-07T12:02:00.910Z,1.30
2022-08-07T12:05:08.996Z,1.40
2022-08-07T12:08:00.597Z,1.10
2022-08-07T12:10:41.918Z,1.30
2022-08-07T12:13:47.444Z,1.30
2022-08-07T12:16:30.443Z,1.40
2022-08-07T12:19:12.478Z,1.30
2022-08-07T12:22:39.024Z,1.10
2022-08-07T12:26:21.931Z,1.40
2022-08-07T12:28:45.054Z,1.40
2022-08-07T12:31:53.016Z,1.20
2022-08-07T12:34:26.690Z,1.30
2022-08-07T12:36:56.371Z,1.30
2022-08-07T12:39:42.067Z,1.30
2022-08-07T12:42:13.207Z,1.40
2022-08-07T12:44:45.179Z,1.10
2022-08-07T12:47:49.502Z,1.00
2022-08-07T12:50:38.864Z,1.30
2022-08-07T12:53:18.764Z,1.20
2022-08-07T12:56:09.661Z,1.30
2022-08-07T12:58:44.375Z,1.20
2022-08-07T13:01:43.303Z,1.10
2022-08-07T13:04:19.115Z,1.30
2022-08-07T13:08:13.858Z,1.10
2022-08-07T13:10:52.828Z,1.30
2022-08-07T13:13:48.234Z,1.20
2022-08-07T13:16:53.481Z,1.30
2022-08-07T13:19:51.596Z,1.20
2022-08-07T13:22:39.403Z,1.20
2022-08-07T13:25:29.993Z,1.10
2022-08-07T13:28:14.045Z,1.40
2022-08-07T13:31:01.685Z,1.30
2022-08-07T13:34:33.540Z,1.30
2022-08-07T13:36:47.118Z,1.20
2022-08-07T13:40:34.067Z,1.20
2022-08-07T13:42:24.839Z,1.30
2022-08-07T13:46:07.004Z,1.10
2022-08-07T13:48:06.109Z,1.30
2022-08-07T13:50:45.184Z,1.20
2022-08-07T13:53:23.816Z,1.30
2022-08-07T13:55:54.542Z,1.40
2022-08-07T13:58:56.184Z,1.10
2022-08-07T14:01:28.415Z,1.40
2022-08-07T14:04:09.171Z,1.20
2022-08-07T14:06:44.624Z,1.10
2022-08-07T14:10:12.451Z,1.30
2022-08-07T14:12:53.957Z,1.20
2022-08-07T14:15:44.275Z,1.10
2022-08-07T14:18:27.781Z,1.10
2022-08-07T14:21:07.880Z,1.00
2022-08-07T14:23:58.921Z,0.90
2022-08-07T14:26:50.328Z,1.50
2022-08-07T14:30:06.232Z,1.00
2022-08-07T14:32:16.005Z,1.10
2022-08-07T14:34:46.754Z,1.10
2022-08-07T14:37:17.305Z,1.00
2022-08-07T14:42:35.132Z,1.20
2022-08-07T14:45:46.367Z,0.90
2022-08-07T14:48:19.727Z,1.30
2022-08-07T14:50:53.411Z,1.00
2022-08-07T14:54:05.624Z,0.80
2022-08-07T14:56:14.156Z,1.30
2022-08-07T14:58:44.910Z,1.10
2022-08-07T15:01:21.600Z,0.90
2022-08-07T15:06:39.628Z,0.90
2022-08-07T15:09:47.085Z,1.00
2022-08-07T15:12:08.696Z,1.20
2022-08-07T15:14:57.631Z,1.00
2022-08-07T15:17:31.990Z,1.10
2022-08-07T15:20:33.338Z,0.90
2022-08-07T15:22:54.972Z,1.00
2022-08-07T15:25:36.831Z,1.20
2022-08-07T15:28:33.020Z,1.10
2022-08-07T15:33:57.403Z,1.40
2022-08-07T15:37:03.330Z,1.10
2022-08-07T15:39:14.182Z,1.40
2022-08-07T15:42:46.704Z,1.00
2022-08-07T15:44:51.938Z,1.00
2022-08-07T15:47:21.411Z,1.20
2022-08-07T15:51:01.327Z,0.90
2022-08-07T15:53:17.185Z,1.10
2022-08-07T15:56:01.830Z,1.00
2022-08-07T15:58:58.576Z,1.00
2022-08-07T16:01:38.463Z,1.10
2022-08-07T16:04:14.748Z,0.90
2022-08-07T16:06:58.986Z,1.10
2022-08-07T16:09:42.302Z,1.20
2022-08-07T16:12:37.922Z,1.20
2022-08-07T16:15:54.879Z,1.10
2022-08-07T16:18:50.021Z,1.00
2022-08-07T16:22:01.529Z,1.30
2022-08-07T16:24:33.790Z,1.20
2022-08-07T16:27:40.337Z,1.10
2022-08-07T16:30:32.058Z,1.10
2022-08-07T16:34:02.031Z,1.20
2022-08-07T16:36:20.469Z,1.10
2022-08-07T16:39:40.340Z,1.20
2022-08-07T16:42:41.142Z,1.00
2022-08-07T16:46:47.348Z,1.40
2022-08-07T16:48:27.727Z,1.10
2022-08-07T16:51:57.571Z,1.40
2022-08-07T16:54:19.332Z,1.20
2022-08-07T16:57:04.139Z,1.10
2022-08-07T17:00:13.285Z,1.10
2022-08-07T17:03:17.183Z,1.30
2022-08-07T17:06:29.404Z,1.20
2022-08-07T17:10:06.185Z,1.10
2022-08-07T17:12:34.244Z,1.10
2022-08-07T17:15:16.436Z,1.30
2022-08-07T17:18:18.086Z,1.40
2022-08-07T17:20:46.448Z,1.20
2022-08-07T17:23:34.574Z,1.20
2022-08-07T17:26:22.956Z,1.10
2022-08-07T17:28:57.219Z,1.10
2022-08-07T17:32:02.608Z,1.10
2022-08-07T17:35:33.242Z,1.20
2022-08-07T17:38:11.363Z,1.10
2022-08-07T17:40:33.459Z,1.40
2022-08-07T17:43:19.988Z,1.20
2022-08-07T17:46:06.637Z,1.50
2022-08-07T17:48:46.581Z,1.40
2022-08-07T17:51:59.935Z,1.20
2022-08-07T17:54:40.056Z,1.30
2022-08-07T17:57:59.262Z,1.30
2022-08-07T18:00:32.931Z,1.40
2022-08-07T18:04:03.964Z,1.50
2022-08-07T18:06:39.268Z,1.30
2022-08-07T18:10:05.149Z,1.20
2022-08-07T18:12:38.674Z,1.30
2022-08-07T18:15:18.680Z,1.40
2022-08-07T18:18:39.911Z,1.90
2022-08-07T18:21:41.365Z,1.50
2022-08-07T18:24:33.408Z,1.60
2022-08-07T18:27:41.620Z,1.50
2022-08-07T18:30:30.841Z,1.30
2022-08-07T18:33:55.411Z,1.40
2022-08-07T18:36:53.940Z,1.40
2022-08-07T18:40:08.010Z,1.40
2022-08-07T18:43:02.133Z,1.30
2022-08-07T18:46:25.232Z,2.00
2022-08-07T18:50:18.846Z,1.50
2022-08-07T18:52:37.466Z,1.40
2022-08-07T18:55:42.407Z,1.20
2022-08-07T18:58:43.282Z,1.50
2022-08-07T19:02:19.456Z,1.20
2022-08-07T19:05:27.289Z,1.70
2022-08-07T19:09:08.937Z,1.60
2022-08-07T19:12:04.592Z,1.40
2022-08-07T19:14:51.816Z,1.70
2022-08-07T19:18:01.173Z,1.70
2022-08-07T19:24:04.611Z,1.60
2022-08-07T19:27:10.374Z,1.40
2022-08-07T19:31:04.782Z,1.70
2022-08-07T19:32:39.466Z,1.50
2022-08-07T19:35:18.980Z,1.40
2022-08-07T19:37:59.626Z,1.70
2022-08-07T19:40:34.563Z,1.40
2022-08-07T19:43:21.586Z,1.50
2022-08-07T19:46:07.669Z,1.50
2022-08-07T19:48:43.065Z,1.60
2022-08-07T19:51:20.540Z,1.50
2022-08-07T19:54:35.554Z,1.30
2022-08-07T19:58:03.120Z,1.60
2022-08-07T19:59:46.305Z,1.50
2022-08-07T20:02:19.753Z,1.50
2022-08-07T20:04:50.043Z,1.30
2022-08-07T20:07:48.083Z,1.70
2022-08-07T20:10:35.397Z,1.90
2022-08-07T20:13:06.034Z,2.00
2022-08-07T20:15:37.189Z,2.30
2022-08-07T20:18:14.736Z,2.10
2022-08-07T20:20:45.749Z,1.90
2022-08-07T20:23:32.825Z,2.00
2022-08-07T20:26:05.446Z,1.50
2022-08-07T20:28:39.501Z,2.00
2022-08-07T20:31:21.242Z,1.80
2022-08-07T20:33:56.821Z,1.80
2022-08-07T20:36:27.048Z,1.60
2022-08-07T20:39:00.395Z,1.80
2022-08-07T20:41:38.158Z,2.00
2022-08-07T20:44:12.388Z,1.90
2022-08-07T20:46:44.427Z,1.90
2022-08-07T20:50:00.583Z,2.30
2022-08-07T20:52:13.780Z,2.20
2022-08-07T20:54:41.600Z,2.00
2022-08-07T20:57:13.040Z,2.20
2022-08-07T21:00:06.970Z,1.80
2022-08-07T21:02:54.456Z,1.70
2022-08-07T21:05:50.679Z,1.70
2022-08-07T21:08:42.110Z,1.80
2022-08-07T21:11:18.134Z,1.90
2022-08-07T21:14:16.904Z,2.10
2022-08-07T21:16:56.087Z,2.00
2022-08-07T21:19:32.006Z,2.00
2022-08-07T21:22:16.270Z,1.70
2022-08-07T21:25:56.478Z,2.00
2022-08-07T21:28:48.804Z,1.90
2022-08-07T21:32:42.969Z,1.80
2022-08-07T21:34:48.549Z,1.80
2022-08-07T21:37:57.388Z,1.90
2022-08-07T21:40:54.878Z,1.70
2022-08-07T21:43:57.070Z,1.80
2022-08-07T21:46:32.263Z,1.80
2022-08-07T21:49:16.561Z,1.90
2022-08-07T21:52:16.616Z,1.70
2022-08-07T21:54:55.923Z,1.70
2022-08-07T21:58:05.587Z,1.60
2022-08-07T22:00:35.280Z,1.70
2022-08-07T22:03:31.607Z,2.00
2022-08-07T22:06:30.780Z,1.70
2022-08-07T22:09:11.806Z,1.70
2022-08-07T22:12:04.970Z,1.60
2022-08-07T22:14:59.110Z,1.60
2022-08-07T22:17:36.880Z,1.70
2022-08-07T22:20:23.186Z,1.80
2022-08-07T22:23:36.135Z,1.50
2022-08-07T22:26:30.474Z,1.70
2022-08-07T22:29:37.896Z,1.70
2022-08-07T22:32:42.330Z,1.90
2022-08-07T22:35:11.566Z,1.70
2022-08-07T22:38:20.449Z,1.60
2022-08-07T22:41:02.918Z,1.70
2022-08-07T22:43:36.949Z,1.70
2022-08-07T22:47:03.104Z,2.00
2022-08-07T22:50:06.449Z,1.80
2022-08-07T22:53:15.364Z,1.80
2022-08-07T22:55:46.862Z,1.80
2022-08-07T22:58:47.671Z,1.60
2022-08-07T23:01:53.970Z,1.70
2022-08-07T23:06:14.735Z,1.50
2022-08-07T23:08:30.603Z,1.70
2022-08-07T23:11:41.423Z,1.40
2022-08-07T23:14:37.244Z,1.60
2022-08-07T23:17:26.836Z,1.50
2022-08-07T23:20:51.157Z,1.60
2022-08-07T23:24:06.781Z,1.70
2022-08-07T23:26:56.336Z,1.80
2022-08-07T23:30:38.574Z,1.60
2022-08-07T23:34:33.398Z,1.90
2022-08-07T23:36:03.381Z,1.50
2022-08-07T23:39:21.940Z,1.70
2022-08-07T23:42:23.735Z,1.50
2022-08-07T23:46:03.707Z,1.60
2022-08-07T23:48:47.317Z,1.70
2022-08-07T23:53:00.750Z,1.70
2022-08-07T23:54:44.390Z,1.50
2022-08-07T23:57:42.611Z,1.60
